createdAt,value
2019-05-10T00:01:41.017Z,94567.59
2019-05-10T00:04:30.974Z,94579.09
2019-05-10T00:07:21.018Z,94578.28
2019-05-10T00:09:52.794Z,94589.49
2019-05-10T00:12:56.623Z,94598.38
2019-05-10T00:15:31.302Z,94601.27
2019-05-10T00:18:04.028Z,94603.38
2019-05-10T00:20:36.915Z,94605.77
2019-05-10T00:23:09.625Z,94620.03
2019-05-10T00:25:42.307Z,94625.76
2019-05-10T00:28:15.325Z,94630.25
2019-05-10T00:30:48.142Z,94634.64
2019-05-10T00:33:20.758Z,94616.65
2019-05-10T00:35:53.381Z,94621.52
2019-05-10T00:38:26.126Z,94609.94
2019-05-10T00:41:01.774Z,94606.73
2019-05-10T00:43:34.407Z,94605.92
2019-05-10T00:46:07.100Z,94606.40
2019-05-10T00:48:39.765Z,94615.40
2019-05-10T00:51:12.583Z,94612.27
2019-05-10T00:53:45.370Z,94612.28
2019-05-10T00:56:18.069Z,94615.75
2019-05-10T00:58:50.762Z,94615.27
2019-05-10T01:01:23.419Z,94613.64
2019-05-10T01:03:56.071Z,94615.19
2019-05-10T01:06:28.808Z,94612.27
2019-05-10T01:09:01.505Z,94601.80
2019-05-10T01:11:34.320Z,94601.88
2019-05-10T01:14:07.254Z,94600.66
2019-05-10T01:16:40.202Z,94597.85
2019-05-10T01:19:12.952Z,94595.38
2019-05-10T01:21:45.627Z,94595.58
2019-05-10T01:24:18.275Z,94590.66
2019-05-10T01:26:51.028Z,94596.46
2019-05-10T01:29:23.652Z,94601.02
2019-05-10T01:31:56.618Z,94609.98
2019-05-10T01:34:29.225Z,94600.54
2019-05-10T01:37:02.021Z,94600.34
2019-05-10T01:39:34.293Z,94603.15
2019-05-10T01:42:06.925Z,94608.62
2019-05-10T01:44:39.579Z,94611.90
2019-05-10T01:47:12.211Z,94621.30
2019-05-10T01:49:44.886Z,94612.91
2019-05-10T01:52:17.558Z,94622.77
2019-05-10T01:54:50.161Z,94631.78
2019-05-10T01:57:24.288Z,94629.09
2019-05-10T01:59:56.921Z,94624.88
2019-05-10T02:02:29.547Z,94636.98
2019-05-10T02:05:02.274Z,94637.66
2019-05-10T02:07:35.008Z,94636.00
2019-05-10T02:10:08.562Z,94642.08
2019-05-10T02:12:41.241Z,94634.65
2019-05-10T02:15:14.171Z,94637.77
2019-05-10T02:17:46.761Z,94636.95
2019-05-10T02:20:19.508Z,94633.48
2019-05-10T02:22:52.106Z,94629.78
2019-05-10T02:25:24.698Z,94628.58
2019-05-10T02:27:57.446Z,94634.23
2019-05-10T02:30:30.097Z,94641.44
2019-05-10T02:33:02.781Z,94632.94
2019-05-10T02:35:35.553Z,94633.94
2019-05-10T02:38:07.510Z,94630.44
2019-05-10T02:40:40.241Z,94627.06
2019-05-10T02:43:13.092Z,94623.48
2019-05-10T02:45:45.809Z,94623.84
2019-05-10T02:48:18.605Z,94626.97
2019-05-10T02:50:51.220Z,94622.27
2019-05-10T02:53:24.086Z,94615.80
2019-05-10T02:55:57.540Z,94620.91
2019-05-10T02:58:30.364Z,94613.69
2019-05-10T03:01:05.898Z,94627.58
2019-05-10T03:03:40.763Z,94621.87
2019-05-10T03:06:18.337Z,94618.09
2019-05-10T03:08:56.331Z,94618.88
2019-05-10T03:11:31.402Z,94616.69
2019-05-10T03:14:09.937Z,94620.01
2019-05-10T03:16:45.702Z,94621.89
2019-05-10T03:19:20.925Z,94630.00
2019-05-10T03:22:07.233Z,94629.67
2019-05-10T03:24:39.901Z,94627.59
2019-05-10T03:27:12.541Z,94631.49
2019-05-10T03:29:45.282Z,94616.11
2019-05-10T03:32:18.163Z,94634.87
2019-05-10T03:34:50.848Z,94632.27
2019-05-10T03:37:23.516Z,94633.70
2019-05-10T03:39:56.330Z,94634.87
2019-05-10T03:42:29.220Z,94638.08
2019-05-10T03:45:01.979Z,94633.20
2019-05-10T03:47:34.625Z,94641.19
2019-05-10T03:50:08.482Z,94636.47
2019-05-10T03:52:41.287Z,94637.56
2019-05-10T03:55:14.076Z,94642.56
2019-05-10T03:57:46.707Z,94642.54
2019-05-10T04:00:19.868Z,94653.90
2019-05-10T04:02:52.508Z,94651.59
2019-05-10T04:05:25.242Z,94654.78
2019-05-10T04:07:57.871Z,94654.45
2019-05-10T04:10:30.689Z,94655.63
2019-05-10T04:13:03.390Z,94662.24
2019-05-10T04:15:36.103Z,94660.95
2019-05-10T04:18:08.823Z,94654.72
2019-05-10T04:20:41.564Z,94668.19
2019-05-10T04:23:14.217Z,94671.81
2019-05-10T04:25:46.889Z,94670.81
2019-05-10T04:28:19.584Z,94675.02
2019-05-10T04:30:52.237Z,94670.94
2019-05-10T04:33:24.982Z,94672.66
2019-05-10T04:35:57.702Z,94670.97
2019-05-10T04:38:30.341Z,94671.77
2019-05-10T04:41:03.151Z,94674.86
2019-05-10T04:43:35.049Z,94672.75
2019-05-10T04:46:07.857Z,94673.98
2019-05-10T04:48:40.453Z,94675.77
2019-05-10T04:51:13.159Z,94677.06
2019-05-10T04:53:45.834Z,94672.61
2019-05-10T04:56:18.553Z,94675.92
2019-05-10T04:58:51.175Z,94673.05
2019-05-10T05:01:23.937Z,94684.89
2019-05-10T05:03:56.532Z,94677.12
2019-05-10T05:06:29.230Z,94679.39
2019-05-10T05:09:01.918Z,94681.80
2019-05-10T05:11:34.595Z,94690.22
2019-05-10T05:14:09.469Z,94689.75
2019-05-10T05:16:41.698Z,94680.45
2019-05-10T05:19:14.315Z,94687.30
2019-05-10T05:21:46.923Z,94684.23
2019-05-10T05:24:22.918Z,94688.14
2019-05-10T05:26:54.165Z,94694.28
2019-05-10T05:29:26.926Z,94694.89
2019-05-10T05:32:01.037Z,94698.75
2019-05-10T05:34:34.100Z,94702.53
2019-05-10T05:37:06.848Z,94702.24
2019-05-10T05:39:39.483Z,94701.16
2019-05-10T05:42:12.239Z,94700.17
2019-05-10T05:44:45.355Z,94713.85
2019-05-10T05:47:18.095Z,94711.53
2019-05-10T05:49:50.945Z,94707.25
2019-05-10T05:52:23.718Z,94715.53
2019-05-10T05:54:57.601Z,94714.41
2019-05-10T05:57:31.000Z,94719.84
2019-05-10T06:00:06.418Z,94718.97
2019-05-10T06:02:44.224Z,94719.00
2019-05-10T06:05:12.942Z,94723.69
2019-05-10T06:07:45.624Z,94726.75
2019-05-10T06:10:19.831Z,94722.24
2019-05-10T06:12:53.019Z,94717.26
2019-05-10T06:15:29.079Z,94721.50
2019-05-10T06:18:03.483Z,94720.52
2019-05-10T06:20:38.281Z,94723.11
2019-05-10T06:23:09.378Z,94724.41
2019-05-10T06:25:43.536Z,94732.27
2019-05-10T06:28:28.655Z,94728.28
2019-05-10T06:30:52.642Z,94722.48
2019-05-10T06:33:25.437Z,94731.44
2019-05-10T06:35:58.133Z,94734.84
2019-05-10T06:38:31.961Z,94736.63
2019-05-10T06:41:10.270Z,94745.42
2019-05-10T06:43:39.254Z,94746.19
2019-05-10T06:46:12.127Z,94746.66
2019-05-10T06:48:44.916Z,94743.69
2019-05-10T06:51:17.770Z,94745.60
2019-05-10T06:53:53.593Z,94751.17
2019-05-10T06:56:25.185Z,94745.35
2019-05-10T06:59:12.334Z,94748.23
2019-05-10T07:01:38.476Z,94754.89
2019-05-10T07:04:07.238Z,94754.99
2019-05-10T07:06:39.939Z,94761.02
2019-05-10T07:09:13.193Z,94760.86
2019-05-10T07:11:45.874Z,94760.19
2019-05-10T07:14:25.385Z,94760.72
2019-05-10T07:16:56.481Z,94756.53
2019-05-10T07:19:28.851Z,94762.29
2019-05-10T07:22:01.846Z,94766.11
2019-05-10T07:24:34.575Z,94759.33
2019-05-10T07:27:07.339Z,94771.20
2019-05-10T07:29:43.269Z,94767.27
2019-05-10T07:32:16.398Z,94772.06
2019-05-10T07:34:58.357Z,94769.55
2019-05-10T07:37:23.852Z,94769.78
2019-05-10T07:39:56.652Z,94768.36
2019-05-10T07:42:29.334Z,94774.26
2019-05-10T07:45:02.527Z,94773.49
2019-05-10T07:47:35.286Z,94771.55
2019-05-10T07:50:10.126Z,94766.81
2019-05-10T07:52:44.103Z,94771.24
2019-05-10T07:55:27.834Z,94784.01
2019-05-10T07:57:51.926Z,94774.80
2019-05-10T08:00:25.581Z,94778.80
2019-05-10T08:03:12.402Z,94785.48
2019-05-10T08:05:32.825Z,94777.49
2019-05-10T08:08:05.704Z,94781.09
2019-05-10T08:10:39.373Z,94784.27
2019-05-10T08:13:15.307Z,94785.95
2019-05-10T08:15:48.939Z,94786.66
2019-05-10T08:18:25.265Z,94795.28
2019-05-10T08:21:01.986Z,94789.68
2019-05-10T08:23:30.291Z,94791.34
2019-05-10T08:26:04.518Z,94790.39
2019-05-10T08:28:41.333Z,94796.64
2019-05-10T08:31:12.466Z,94788.88
2019-05-10T08:33:57.168Z,94792.24
2019-05-10T08:36:21.789Z,94791.69
2019-05-10T08:39:05.081Z,94786.22
2019-05-10T08:41:28.487Z,94783.16
2019-05-10T08:44:04.648Z,94795.50
2019-05-10T08:46:41.194Z,94794.88
2019-05-10T08:49:10.252Z,94795.58
2019-05-10T08:51:47.738Z,94801.78
2019-05-10T08:54:17.459Z,94801.17
2019-05-10T08:56:54.929Z,94802.78
2019-05-10T08:59:26.809Z,94809.34
2019-05-10T09:01:59.339Z,94808.16
2019-05-10T09:04:42.261Z,94816.95
2019-05-10T09:07:07.011Z,94814.21
2019-05-10T09:09:45.706Z,94819.38
2019-05-10T09:12:14.109Z,94817.30
2019-05-10T09:14:48.707Z,94820.03
2019-05-10T09:17:23.580Z,94816.78
2019-05-10T09:19:55.710Z,94821.91
2019-05-10T09:22:34.103Z,94826.59
2019-05-10T09:25:02.979Z,94831.48
2019-05-10T09:27:35.728Z,94829.48
2019-05-10T09:30:16.166Z,94832.54
2019-05-10T09:32:44.478Z,94828.53
2019-05-10T09:35:17.211Z,94828.88
2019-05-10T09:37:54.109Z,94831.66
2019-05-10T09:40:26.035Z,94836.86
2019-05-10T09:42:59.400Z,94841.13
2019-05-10T09:45:33.447Z,94837.11
2019-05-10T09:48:06.186Z,94838.73
2019-05-10T09:50:44.853Z,94839.48
2019-05-10T09:53:21.700Z,94834.32
2019-05-10T09:55:55.260Z,94834.72
2019-05-10T09:58:22.638Z,94819.00
2019-05-10T10:01:12.753Z,94816.31
2019-05-10T10:03:30.330Z,94812.11
2019-05-10T10:06:07.628Z,94820.09
2019-05-10T10:08:43.401Z,94814.30
2019-05-10T10:11:18.083Z,94812.71
2019-05-10T10:13:58.596Z,94809.53
2019-05-10T10:16:24.056Z,94810.05
2019-05-10T10:18:56.747Z,94816.69
2019-05-10T10:21:34.893Z,94812.69
2019-05-10T10:24:13.769Z,94802.77
2019-05-10T10:26:38.403Z,94810.84
2019-05-10T10:29:11.083Z,94805.42
2019-05-10T10:31:51.470Z,94806.29
2019-05-10T10:34:18.250Z,94812.56
2019-05-10T10:36:51.114Z,94811.56
2019-05-10T10:39:24.443Z,94808.73
2019-05-10T10:41:57.295Z,94807.55
2019-05-10T10:44:30.017Z,94813.79
2019-05-10T10:47:02.800Z,94814.53
2019-05-10T10:49:37.650Z,94814.08
2019-05-10T10:52:11.369Z,94807.28
2019-05-10T10:54:44.560Z,94803.56
2019-05-10T10:57:18.022Z,94801.02
2019-05-10T10:59:50.860Z,94808.77
2019-05-10T11:02:32.705Z,94804.52
2019-05-10T11:04:58.253Z,94801.97
2019-05-10T11:07:35.293Z,94803.69
2019-05-10T11:10:15.437Z,94798.73
2019-05-10T11:12:41.378Z,94800.33
2019-05-10T11:15:16.396Z,94803.95
2019-05-10T11:17:50.580Z,94798.39
2019-05-10T11:20:23.149Z,94798.80
2019-05-10T11:22:55.894Z,94793.87
2019-05-10T11:25:30.718Z,94787.47
2019-05-10T11:28:03.524Z,94790.23
2019-05-10T11:30:36.395Z,94790.69
2019-05-10T11:33:23.822Z,94786.19
2019-05-10T11:35:44.536Z,94784.81
2019-05-10T11:38:17.269Z,94790.28
2019-05-10T11:40:50.019Z,94787.10
2019-05-10T11:43:26.937Z,94784.61
2019-05-10T11:45:57.338Z,94781.69
2019-05-10T11:48:36.836Z,94787.82
2019-05-10T11:51:05.858Z,94791.92
2019-05-10T11:53:41.461Z,94794.63
2019-05-10T11:58:55.049Z,94791.53
2019-05-10T12:01:22.596Z,94799.56
2019-05-10T12:03:55.361Z,94805.56
2019-05-10T12:06:28.340Z,94821.02
2019-05-10T12:09:04.590Z,94822.25
2019-05-10T12:11:43.064Z,94826.69
2019-05-10T12:14:13.859Z,94833.31
2019-05-10T12:16:44.864Z,94837.81
2019-05-10T12:19:21.129Z,94843.59
2019-05-10T12:24:46.284Z,94861.25
2019-05-10T12:26:04.743Z,94795.55
2019-05-10T12:26:20.604Z,94851.89
2019-05-10T12:27:18.460Z,94869.09
2019-05-10T12:29:35.700Z,94865.53
2019-05-10T12:32:10.380Z,94869.23
2019-05-10T12:34:45.950Z,94861.38
2019-05-10T12:37:17.454Z,94858.08
2019-05-10T12:39:52.869Z,94851.80
2019-05-10T12:42:24.724Z,94853.30
2019-05-10T12:44:57.415Z,94852.20
2019-05-10T12:47:30.603Z,94854.01
2019-05-10T12:50:04.767Z,94859.16
2019-05-10T12:52:37.721Z,94854.33
2019-05-10T12:55:11.210Z,94851.97
2019-05-10T12:57:43.933Z,94851.06
2019-05-10T13:00:17.649Z,94848.14
2019-05-10T13:02:51.919Z,94843.11
2019-05-10T13:05:31.730Z,94849.24
2019-05-10T13:07:59.694Z,94847.99
2019-05-10T13:10:37.215Z,94842.73
2019-05-10T13:13:06.842Z,94842.78
2019-05-10T13:15:40.107Z,94841.92
2019-05-10T13:18:13.131Z,94838.20
2019-05-10T13:20:45.923Z,94837.95
2019-05-10T13:23:18.781Z,94840.84
2019-05-10T13:25:51.624Z,94839.56
2019-05-10T13:28:24.407Z,94840.78
2019-05-10T13:30:59.894Z,94834.06
2019-05-10T13:33:40.676Z,94839.39
2019-05-10T13:36:06.290Z,94834.46
2019-05-10T13:38:43.940Z,94837.38
2019-05-10T13:41:17.745Z,94833.23
2019-05-10T13:43:48.149Z,94832.16
2019-05-10T13:46:20.942Z,94829.06
2019-05-10T13:48:53.643Z,94827.64
2019-05-10T13:51:26.438Z,94823.75
2019-05-10T13:54:00.857Z,94819.61
2019-05-10T13:56:33.869Z,94815.61
2019-05-10T13:59:15.339Z,94819.39
2019-05-10T14:01:44.233Z,94822.48
2019-05-10T14:04:15.629Z,94823.36
2019-05-10T14:06:48.362Z,94806.38
2019-05-10T14:09:21.270Z,94804.33
2019-05-10T14:11:54.247Z,94803.16
2019-05-10T14:14:27.028Z,94807.12
2019-05-10T14:16:59.917Z,94806.98
2019-05-10T14:19:35.842Z,94808.97
2019-05-10T14:22:06.691Z,94806.05
2019-05-10T14:24:39.417Z,94805.47
2019-05-10T14:27:12.228Z,94800.70
2019-05-10T14:29:44.973Z,94805.03
2019-05-10T14:32:17.728Z,94798.95
2019-05-10T14:34:50.580Z,94793.63
2019-05-10T14:37:23.494Z,94798.66
2019-05-10T14:39:56.326Z,94795.92
2019-05-10T14:42:31.784Z,94793.84
2019-05-10T14:45:03.863Z,94797.80
2019-05-10T14:47:46.962Z,94780.91
2019-05-10T14:50:12.246Z,94780.84
2019-05-10T14:52:44.981Z,94779.59
2019-05-10T14:55:17.703Z,94790.52
2019-05-10T14:57:50.567Z,94798.67
2019-05-10T15:00:23.633Z,94795.19
2019-05-10T15:03:01.540Z,94790.02
2019-05-10T15:05:30.842Z,94796.07
2019-05-10T15:08:06.513Z,94805.48
2019-05-10T15:10:41.810Z,94797.06
2019-05-10T15:13:19.503Z,94797.87
2019-05-10T15:15:49.219Z,94794.63
2019-05-10T15:18:21.894Z,94794.35
2019-05-10T15:20:54.698Z,94791.17
2019-05-10T15:23:27.610Z,94789.91
2019-05-10T15:26:10.487Z,94783.80
2019-05-10T15:28:40.669Z,94788.08
2019-05-10T15:31:09.276Z,94783.28
2019-05-10T15:33:42.145Z,94783.06
2019-05-10T15:36:14.810Z,94779.02
2019-05-10T15:38:51.678Z,94773.95
2019-05-10T15:41:22.404Z,94775.28
2019-05-10T15:43:56.398Z,94782.05
2019-05-10T15:46:39.365Z,94777.38
2019-05-10T15:49:03.581Z,94774.13
2019-05-10T15:51:36.863Z,94768.34
2019-05-10T15:54:09.678Z,94765.48
2019-05-10T15:56:44.206Z,94769.06
2019-05-10T15:59:23.779Z,94770.58
2019-05-10T16:01:51.780Z,94767.55
2019-05-10T16:04:24.717Z,94762.50
2019-05-10T16:07:09.322Z,94760.92
2019-05-10T16:09:42.827Z,94751.48
2019-05-10T16:12:16.493Z,94747.29
2019-05-10T16:14:49.240Z,94748.74
2019-05-10T16:17:23.977Z,94737.16
2019-05-10T16:19:59.692Z,94734.55
2019-05-10T16:22:32.066Z,94725.92
2019-05-10T16:25:04.997Z,94722.60
2019-05-10T16:27:41.721Z,94729.63
2019-05-10T16:30:17.703Z,94729.13
2019-05-10T16:32:48.221Z,94729.39
2019-05-10T16:35:22.217Z,94726.13
2019-05-10T16:37:54.955Z,94722.66
2019-05-10T16:40:27.684Z,94720.48
2019-05-10T16:43:01.090Z,94729.22
2019-05-10T16:45:33.839Z,94732.00
2019-05-10T16:48:09.981Z,94723.46
2019-05-10T16:50:42.702Z,94721.91
2019-05-10T16:53:15.492Z,94728.94
2019-05-10T16:55:50.163Z,94736.19
2019-05-10T16:58:23.277Z,94745.82
2019-05-10T17:00:56.047Z,94746.26
2019-05-10T17:03:28.850Z,94729.36
2019-05-10T17:06:04.072Z,94731.67
2019-05-10T17:08:38.657Z,94734.38
2019-05-10T17:11:11.947Z,94741.31
2019-05-10T17:14:01.381Z,94743.14
2019-05-10T17:16:34.208Z,94745.23
2019-05-10T17:19:07.050Z,94734.48
2019-05-10T17:21:40.282Z,94730.45
2019-05-10T17:24:13.815Z,94726.84
2019-05-10T17:26:46.648Z,94737.20
2019-05-10T17:29:19.380Z,94736.93
2019-05-10T17:31:52.089Z,94748.95
2019-05-10T17:34:29.519Z,94748.83
2019-05-10T17:36:59.843Z,94744.89
2019-05-10T17:39:34.230Z,94747.24
2019-05-10T17:42:07.152Z,94743.66
2019-05-10T17:44:43.586Z,94745.72
2019-05-10T17:47:14.968Z,94748.80
2019-05-10T17:49:47.707Z,94754.11
2019-05-10T17:52:20.442Z,94765.91
2019-05-10T17:54:53.501Z,94770.36
2019-05-10T17:57:26.216Z,94763.34
2019-05-10T17:59:59.056Z,94756.14
2019-05-10T18:02:31.881Z,94753.89
2019-05-10T18:05:07.993Z,94750.61
2019-05-10T18:07:39.386Z,94760.00
2019-05-10T18:10:12.782Z,94765.00
2019-05-10T18:12:45.485Z,94770.50
2019-05-10T18:15:18.276Z,94772.64
2019-05-10T18:17:51.106Z,94776.80
2019-05-10T18:20:23.964Z,94781.81
2019-05-10T18:22:56.663Z,94776.83
2019-05-10T18:25:29.372Z,94775.30
2019-05-10T18:28:02.157Z,94782.20
2019-05-10T18:30:34.890Z,94792.38
2019-05-10T18:33:12.488Z,94797.94
2019-05-10T18:35:42.177Z,94802.83
2019-05-10T18:38:15.026Z,94797.09
2019-05-10T18:40:47.769Z,94797.83
2019-05-10T18:43:20.569Z,94798.72
2019-05-10T18:45:53.343Z,94799.83
2019-05-10T18:48:26.126Z,94783.77
2019-05-10T18:50:58.838Z,94786.38
2019-05-10T18:53:31.616Z,94773.29
2019-05-10T18:56:04.484Z,94775.98
2019-05-10T18:58:36.759Z,94781.66
2019-05-10T19:01:09.521Z,94787.23
2019-05-10T19:03:42.387Z,94791.23
2019-05-10T19:06:15.132Z,94804.99
2019-05-10T19:08:47.845Z,94800.48
2019-05-10T19:11:20.648Z,94797.94
2019-05-10T19:13:54.173Z,94786.83
2019-05-10T19:16:32.194Z,94782.45
2019-05-10T19:19:03.643Z,94767.11
2019-05-10T19:21:37.885Z,94750.34
2019-05-10T19:24:11.059Z,94741.84
2019-05-10T19:26:43.827Z,94743.22
2019-05-10T19:29:16.626Z,94744.31
2019-05-10T19:31:51.513Z,94736.66
2019-05-10T19:34:24.308Z,94735.30
2019-05-10T19:36:57.102Z,94730.57
2019-05-10T19:39:29.896Z,94728.80
2019-05-10T19:42:04.005Z,94731.28
2019-05-10T19:44:40.564Z,94737.23
2019-05-10T19:47:17.690Z,94737.23
2019-05-10T19:49:51.878Z,94746.46
2019-05-10T19:52:26.095Z,94745.38
2019-05-10T19:54:54.948Z,94763.34
2019-05-10T19:57:27.790Z,94758.94
2019-05-10T20:00:00.521Z,94751.75
2019-05-10T20:02:33.278Z,94761.45
2019-05-10T20:05:06.284Z,94763.44
2019-05-10T20:07:46.056Z,94762.53
2019-05-10T20:10:14.161Z,94756.07
2019-05-10T20:12:46.905Z,94772.96
2019-05-10T20:15:19.892Z,94766.45
2019-05-10T20:17:52.761Z,94770.81
2019-05-10T20:20:25.503Z,94768.51
2019-05-10T20:22:58.257Z,94767.52
2019-05-10T20:25:31.003Z,94766.30
2019-05-10T20:28:06.424Z,94757.31
2019-05-10T20:30:38.400Z,94761.66
2019-05-10T20:33:11.314Z,94749.38
2019-05-10T20:35:44.441Z,94751.30
2019-05-10T20:38:17.297Z,94751.05
2019-05-10T20:40:50.049Z,94751.67
2019-05-10T20:43:22.935Z,94753.69
2019-05-10T20:45:55.649Z,94755.52
2019-05-10T20:48:29.276Z,94764.73
2019-05-10T20:51:02.065Z,94755.56
2019-05-10T20:53:34.770Z,94753.11
2019-05-10T20:56:07.655Z,94763.78
2019-05-10T20:58:40.765Z,94757.93
2019-05-10T21:01:14.027Z,94760.30
2019-05-10T21:03:46.834Z,94758.53
2019-05-10T21:06:19.543Z,94766.11
2019-05-10T21:08:52.337Z,94763.84
2019-05-10T21:11:25.058Z,94761.91
2019-05-10T21:13:58.098Z,94764.13
2019-05-10T21:16:31.022Z,94764.95
2019-05-10T21:19:05.173Z,94760.06
2019-05-10T21:21:37.901Z,94771.30
2019-05-10T21:24:10.859Z,94762.94
2019-05-10T21:26:43.547Z,94760.42
2019-05-10T21:29:17.349Z,94752.21
2019-05-10T21:31:50.082Z,94752.06
2019-05-10T21:34:22.854Z,94755.31
2019-05-10T21:36:55.548Z,94743.83
2019-05-10T21:39:28.373Z,94754.30
2019-05-10T21:42:01.313Z,94753.95
2019-05-10T21:44:34.121Z,94750.47
2019-05-10T21:47:06.804Z,94746.66
2019-05-10T21:49:39.607Z,94740.70
2019-05-10T21:52:12.424Z,94740.48
2019-05-10T21:54:45.215Z,94739.02
2019-05-10T21:57:17.971Z,94743.50
2019-05-10T21:59:51.599Z,94756.12
2019-05-10T22:02:24.312Z,94749.77
2019-05-10T22:04:57.153Z,94753.42
2019-05-10T22:07:29.997Z,94753.42
2019-05-10T22:10:02.718Z,94746.46
2019-05-10T22:12:35.525Z,94741.78
2019-05-10T22:15:10.447Z,94743.80
2019-05-10T22:17:43.236Z,94741.44
2019-05-10T22:20:16.345Z,94735.47
2019-05-10T22:22:49.005Z,94720.08
2019-05-10T22:25:21.832Z,94719.22
2019-05-10T22:27:57.526Z,94720.30
2019-05-10T22:30:30.316Z,94713.77
2019-05-10T22:33:03.038Z,94710.44
2019-05-10T22:35:35.761Z,94717.42
2019-05-10T22:38:08.710Z,94706.22
2019-05-10T22:40:41.481Z,94706.55
2019-05-10T22:43:14.242Z,94695.02
2019-05-10T22:45:47.149Z,94695.94
2019-05-10T22:48:19.896Z,94687.03
2019-05-10T22:50:52.649Z,94678.28
2019-05-10T22:53:25.419Z,94662.84
2019-05-10T22:55:58.229Z,94668.77
2019-05-10T22:58:31.156Z,94673.16
2019-05-10T23:01:03.157Z,94681.70
2019-05-10T23:03:35.939Z,94677.79
2019-05-10T23:06:08.941Z,94672.95
2019-05-10T23:08:41.792Z,94658.31
2019-05-10T23:11:14.622Z,94667.98
2019-05-10T23:13:47.323Z,94665.76
2019-05-10T23:16:20.119Z,94658.32
2019-05-10T23:18:52.932Z,94664.84
2019-05-10T23:21:28.444Z,94644.59
2019-05-10T23:24:06.837Z,94646.15
2019-05-10T23:26:39.614Z,94647.12
2019-05-10T23:29:12.356Z,94648.55
2019-05-10T23:31:45.018Z,94645.82
2019-05-10T23:34:17.794Z,94639.90
2019-05-10T23:36:50.581Z,94642.42
2019-05-10T23:39:38.399Z,94636.54
2019-05-10T23:41:57.896Z,94638.75
2019-05-10T23:44:30.792Z,94628.05
2019-05-10T23:47:03.466Z,94627.86
2019-05-10T23:49:36.229Z,94627.95
2019-05-10T23:52:09.095Z,94626.99
2019-05-10T23:54:41.847Z,94626.93
2019-05-10T23:57:14.676Z,94627.98
2019-05-10T23:59:47.457Z,94635.81
